sensor_id;sensor_type;location;lat;lon;timestamp;P1;durP1;ratioP1;P2;durP2;ratioP2
19543;SDS011;9917;51.256;7.152;2023-04-24T00:00:09;2.67;;;1.00;;
19543;SDS011;9917;51.256;7.152;2023-04-24T00:02:39;1.13;;;0.80;;
19543;SDS011;9917;51.256;7.152;2023-04-24T00:05:07;0.93;;;0.73;;
19543;SDS011;9917;51.256;7.152;2023-04-24T00:07:33;1.07;;;0.80;;
19543;SDS011;9917;51.256;7.152;2023-04-24T00:09:59;1.65;;;0.95;;
19543;SDS011;9917;51.256;7.152;2023-04-24T00:12:34;0.88;;;0.85;;
19543;SDS011;9917;51.256;7.152;2023-04-24T00:15:01;1.27;;;0.80;;
19543;SDS011;9917;51.256;7.152;2023-04-24T00:17:27;0.93;;;0.70;;
19543;SDS011;9917;51.256;7.152;2023-04-24T00:19:54;3.63;;;1.00;;
19543;SDS011;9917;51.256;7.152;2023-04-24T00:22:19;1.02;;;0.60;;
19543;SDS011;9917;51.256;7.152;2023-04-24T00:24:45;1.40;;;0.85;;
19543;SDS011;9917;51.256;7.152;2023-04-24T00:27:11;2.25;;;1.10;;
19543;SDS011;9917;51.256;7.152;2023-04-24T00:29:37;2.88;;;1.00;;
19543;SDS011;9917;51.256;7.152;2023-04-24T00:32:02;1.48;;;1.08;;
19543;SDS011;9917;51.256;7.152;2023-04-24T00:34:28;1.83;;;0.90;;
19543;SDS011;9917;51.256;7.152;2023-04-24T00:36:55;1.02;;;0.70;;
19543;SDS011;9917;51.256;7.152;2023-04-24T00:39:21;1.95;;;1.17;;
19543;SDS011;9917;51.256;7.152;2023-04-24T00:41:47;3.80;;;1.40;;
19543;SDS011;9917;51.256;7.152;2023-04-24T00:44:13;1.83;;;1.20;;
19543;SDS011;9917;51.256;7.152;2023-04-24T00:46:39;2.75;;;1.10;;
19543;SDS011;9917;51.256;7.152;2023-04-24T00:49:05;3.45;;;1.60;;
19543;SDS011;9917;51.256;7.152;2023-04-24T00:51:31;3.25;;;2.30;;
19543;SDS011;9917;51.256;7.152;2023-04-24T00:53:59;2.20;;;1.40;;
19543;SDS011;9917;51.256;7.152;2023-04-24T00:56:25;1.58;;;1.30;;
19543;SDS011;9917;51.256;7.152;2023-04-24T00:58:51;4.45;;;1.10;;
19543;SDS011;9917;51.256;7.152;2023-04-24T01:01:16;2.53;;;1.27;;
19543;SDS011;9917;51.256;7.152;2023-04-24T01:03:46;2.13;;;1.02;;
19543;SDS011;9917;51.256;7.152;2023-04-24T01:06:13;3.90;;;1.33;;
19543;SDS011;9917;51.256;7.152;2023-04-24T01:08:40;4.38;;;1.45;;
19543;SDS011;9917;51.256;7.152;2023-04-24T01:11:08;2.50;;;1.52;;
19543;SDS011;9917;51.256;7.152;2023-04-24T01:13:34;2.00;;;1.50;;
19543;SDS011;9917;51.256;7.152;2023-04-24T01:16:00;3.15;;;1.63;;
19543;SDS011;9917;51.256;7.152;2023-04-24T01:18:26;2.58;;;1.48;;
19543;SDS011;9917;51.256;7.152;2023-04-24T01:20:53;3.90;;;1.45;;
19543;SDS011;9917;51.256;7.152;2023-04-24T01:23:23;3.28;;;1.30;;
19543;SDS011;9917;51.256;7.152;2023-04-24T01:25:49;1.67;;;1.20;;
19543;SDS011;9917;51.256;7.152;2023-04-24T01:28:14;3.40;;;1.70;;
19543;SDS011;9917;51.256;7.152;2023-04-24T01:30:41;2.60;;;1.38;;
19543;SDS011;9917;51.256;7.152;2023-04-24T01:33:08;2.90;;;1.67;;
19543;SDS011;9917;51.256;7.152;2023-04-24T01:35:34;3.78;;;1.65;;
19543;SDS011;9917;51.256;7.152;2023-04-24T01:38:00;4.68;;;1.80;;
19543;SDS011;9917;51.256;7.152;2023-04-24T01:40:27;3.13;;;1.33;;
19543;SDS011;9917;51.256;7.152;2023-04-24T01:42:52;2.63;;;1.58;;
19543;SDS011;9917;51.256;7.152;2023-04-24T01:45:18;2.30;;;1.63;;
19543;SDS011;9917;51.256;7.152;2023-04-24T01:47:44;2.03;;;1.73;;
19543;SDS011;9917;51.256;7.152;2023-04-24T01:50:11;2.53;;;1.50;;
19543;SDS011;9917;51.256;7.152;2023-04-24T01:52:36;2.88;;;1.50;;
19543;SDS011;9917;51.256;7.152;2023-04-24T01:55:02;3.47;;;2.00;;
19543;SDS011;9917;51.256;7.152;2023-04-24T01:57:31;3.50;;;1.75;;
19543;SDS011;9917;51.256;7.152;2023-04-24T01:59:57;2.40;;;1.77;;
19543;SDS011;9917;51.256;7.152;2023-04-24T02:02:23;4.50;;;1.92;;
19543;SDS011;9917;51.256;7.152;2023-04-24T02:04:49;4.60;;;2.60;;
19543;SDS011;9917;51.256;7.152;2023-04-24T02:07:15;3.05;;;2.33;;
19543;SDS011;9917;51.256;7.152;2023-04-24T02:09:41;4.70;;;2.83;;
19543;SDS011;9917;51.256;7.152;2023-04-24T02:12:07;5.38;;;2.60;;
19543;SDS011;9917;51.256;7.152;2023-04-24T02:14:34;3.87;;;3.00;;
19543;SDS011;9917;51.256;7.152;2023-04-24T02:17:00;6.23;;;3.10;;
19543;SDS011;9917;51.256;7.152;2023-04-24T02:19:26;7.30;;;2.60;;
19543;SDS011;9917;51.256;7.152;2023-04-24T02:21:52;4.60;;;2.60;;
19543;SDS011;9917;51.256;7.152;2023-04-24T02:24:17;6.70;;;3.70;;
19543;SDS011;9917;51.256;7.152;2023-04-24T02:26:43;4.83;;;3.70;;
19543;SDS011;9917;51.256;7.152;2023-04-24T02:29:09;4.57;;;3.60;;
19543;SDS011;9917;51.256;7.152;2023-04-24T02:31:36;7.80;;;3.93;;
19543;SDS011;9917;51.256;7.152;2023-04-24T02:34:02;7.53;;;4.97;;
19543;SDS011;9917;51.256;7.152;2023-04-24T02:36:27;7.37;;;5.07;;
19543;SDS011;9917;51.256;7.152;2023-04-24T02:38:53;7.67;;;5.10;;
19543;SDS011;9917;51.256;7.152;2023-04-24T02:41:19;10.60;;;5.30;;
19543;SDS011;9917;51.256;7.152;2023-04-24T02:43:45;10.57;;;5.43;;
19543;SDS011;9917;51.256;7.152;2023-04-24T02:46:10;8.33;;;4.90;;
19543;SDS011;9917;51.256;7.152;2023-04-24T02:48:38;9.13;;;5.63;;
19543;SDS011;9917;51.256;7.152;2023-04-24T02:51:03;11.43;;;5.50;;
19543;SDS011;9917;51.256;7.152;2023-04-24T02:53:29;7.60;;;4.97;;
19543;SDS011;9917;51.256;7.152;2023-04-24T02:55:55;17.67;;;6.45;;
19543;SDS011;9917;51.256;7.152;2023-04-24T02:58:21;9.00;;;5.57;;
19543;SDS011;9917;51.256;7.152;2023-04-24T03:00:47;7.73;;;5.53;;
19543;SDS011;9917;51.256;7.152;2023-04-24T03:03:14;9.17;;;5.80;;
19543;SDS011;9917;51.256;7.152;2023-04-24T03:05:41;9.30;;;6.40;;
19543;SDS011;9917;51.256;7.152;2023-04-24T03:08:06;8.60;;;5.57;;
19543;SDS011;9917;51.256;7.152;2023-04-24T03:10:32;7.97;;;5.70;;
19543;SDS011;9917;51.256;7.152;2023-04-24T03:12:58;9.13;;;5.77;;
19543;SDS011;9917;51.256;7.152;2023-04-24T03:15:23;9.77;;;6.13;;
19543;SDS011;9917;51.256;7.152;2023-04-24T03:17:49;11.60;;;6.47;;
19543;SDS011;9917;51.256;7.152;2023-04-24T03:20:15;8.73;;;6.77;;
19543;SDS011;9917;51.256;7.152;2023-04-24T03:22:42;9.73;;;6.77;;
19543;SDS011;9917;51.256;7.152;2023-04-24T03:25:08;11.97;;;6.50;;
19543;SDS011;9917;51.256;7.152;2023-04-24T03:27:34;11.13;;;6.85;;
19543;SDS011;9917;51.256;7.152;2023-04-24T03:30:00;10.90;;;7.03;;
19543;SDS011;9917;51.256;7.152;2023-04-24T03:32:26;11.50;;;6.63;;
19543;SDS011;9917;51.256;7.152;2023-04-24T03:34:52;12.83;;;7.87;;
19543;SDS011;9917;51.256;7.152;2023-04-24T03:37:18;11.43;;;6.22;;
19543;SDS011;9917;51.256;7.152;2023-04-24T03:39:45;12.97;;;6.63;;
19543;SDS011;9917;51.256;7.152;2023-04-24T03:42:15;12.23;;;7.10;;
19543;SDS011;9917;51.256;7.152;2023-04-24T03:44:41;11.70;;;7.10;;
19543;SDS011;9917;51.256;7.152;2023-04-24T03:47:06;11.75;;;7.32;;
19543;SDS011;9917;51.256;7.152;2023-04-24T03:49:32;10.30;;;7.00;;
19543;SDS011;9917;51.256;7.152;2023-04-24T03:51:59;12.43;;;6.53;;
19543;SDS011;9917;51.256;7.152;2023-04-24T03:54:25;10.80;;;6.70;;
19543;SDS011;9917;51.256;7.152;2023-04-24T03:56:52;10.00;;;6.17;;
19543;SDS011;9917;51.256;7.152;2023-04-24T03:59:18;11.00;;;6.77;;
19543;SDS011;9917;51.256;7.152;2023-04-24T04:01:44;12.68;;;7.30;;
19543;SDS011;9917;51.256;7.152;2023-04-24T04:04:09;9.17;;;6.30;;
19543;SDS011;9917;51.256;7.152;2023-04-24T04:06:35;12.37;;;6.90;;
19543;SDS011;9917;51.256;7.152;2023-04-24T04:09:01;10.77;;;6.43;;
19543;SDS011;9917;51.256;7.152;2023-04-24T04:11:27;11.53;;;7.23;;
19543;SDS011;9917;51.256;7.152;2023-04-24T04:13:54;10.07;;;6.80;;
19543;SDS011;9917;51.256;7.152;2023-04-24T04:16:20;13.63;;;7.00;;
19543;SDS011;9917;51.256;7.152;2023-04-24T04:18:46;14.10;;;7.57;;
19543;SDS011;9917;51.256;7.152;2023-04-24T04:21:12;10.93;;;7.23;;
19543;SDS011;9917;51.256;7.152;2023-04-24T04:23:37;11.50;;;7.13;;
19543;SDS011;9917;51.256;7.152;2023-04-24T04:26:03;12.77;;;7.37;;
19543;SDS011;9917;51.256;7.152;2023-04-24T04:28:29;13.60;;;7.23;;
19543;SDS011;9917;51.256;7.152;2023-04-24T04:30:56;12.27;;;7.97;;
19543;SDS011;9917;51.256;7.152;2023-04-24T04:33:22;11.90;;;7.60;;
19543;SDS011;9917;51.256;7.152;2023-04-24T04:35:48;12.00;;;7.37;;
19543;SDS011;9917;51.256;7.152;2023-04-24T04:38:14;11.40;;;7.63;;
19543;SDS011;9917;51.256;7.152;2023-04-24T04:40:41;12.23;;;7.70;;
19543;SDS011;9917;51.256;7.152;2023-04-24T04:43:06;11.83;;;8.03;;
19543;SDS011;9917;51.256;7.152;2023-04-24T04:45:32;10.97;;;7.07;;
19543;SDS011;9917;51.256;7.152;2023-04-24T04:48:00;12.60;;;7.80;;
19543;SDS011;9917;51.256;7.152;2023-04-24T04:50:26;12.50;;;6.67;;
19543;SDS011;9917;51.256;7.152;2023-04-24T04:52:51;15.67;;;7.90;;
19543;SDS011;9917;51.256;7.152;2023-04-24T04:55:17;13.87;;;7.57;;
19543;SDS011;9917;51.256;7.152;2023-04-24T04:57:43;11.83;;;7.50;;
19543;SDS011;9917;51.256;7.152;2023-04-24T05:00:09;11.68;;;7.20;;
19543;SDS011;9917;51.256;7.152;2023-04-24T05:02:36;12.35;;;8.30;;
19543;SDS011;9917;51.256;7.152;2023-04-24T05:05:03;11.60;;;7.10;;
19543;SDS011;9917;51.256;7.152;2023-04-24T05:07:29;9.98;;;6.90;;
19543;SDS011;9917;51.256;7.152;2023-04-24T05:09:55;12.23;;;7.37;;
19543;SDS011;9917;51.256;7.152;2023-04-24T05:12:21;12.57;;;6.80;;
19543;SDS011;9917;51.256;7.152;2023-04-24T05:14:47;11.43;;;6.90;;
19543;SDS011;9917;51.256;7.152;2023-04-24T05:17:13;11.53;;;6.87;;
19543;SDS011;9917;51.256;7.152;2023-04-24T05:19:39;15.15;;;7.47;;
19543;SDS011;9917;51.256;7.152;2023-04-24T05:22:06;13.67;;;7.23;;
19543;SDS011;9917;51.256;7.152;2023-04-24T05:24:32;11.27;;;7.43;;
19543;SDS011;9917;51.256;7.152;2023-04-24T05:26:57;12.27;;;7.40;;
19543;SDS011;9917;51.256;7.152;2023-04-24T05:29:23;11.60;;;6.50;;
19543;SDS011;9917;51.256;7.152;2023-04-24T05:31:49;10.20;;;7.17;;
19543;SDS011;9917;51.256;7.152;2023-04-24T05:34:15;11.83;;;7.50;;
19543;SDS011;9917;51.256;7.152;2023-04-24T05:36:41;14.13;;;7.37;;
19543;SDS011;9917;51.256;7.152;2023-04-24T05:39:08;12.00;;;7.07;;
19543;SDS011;9917;51.256;7.152;2023-04-24T05:41:34;15.10;;;6.93;;
19543;SDS011;9917;51.256;7.152;2023-04-24T05:44:00;9.30;;;7.03;;
19543;SDS011;9917;51.256;7.152;2023-04-24T05:46:26;10.70;;;6.80;;
19543;SDS011;9917;51.256;7.152;2023-04-24T05:48:52;11.80;;;6.70;;
19543;SDS011;9917;51.256;7.152;2023-04-24T05:51:17;12.47;;;6.47;;
19543;SDS011;9917;51.256;7.152;2023-04-24T05:53:43;10.63;;;6.73;;
19543;SDS011;9917;51.256;7.152;2023-04-24T05:56:10;9.73;;;6.60;;
19543;SDS011;9917;51.256;7.152;2023-04-24T05:58:36;11.17;;;6.50;;
19543;SDS011;9917;51.256;7.152;2023-04-24T06:01:02;8.80;;;6.13;;
19543;SDS011;9917;51.256;7.152;2023-04-24T06:03:28;10.10;;;6.77;;
19543;SDS011;9917;51.256;7.152;2023-04-24T06:05:54;11.07;;;7.17;;
19543;SDS011;9917;51.256;7.152;2023-04-24T06:08:20;9.57;;;5.93;;
19543;SDS011;9917;51.256;7.152;2023-04-24T06:10:46;9.10;;;5.70;;
19543;SDS011;9917;51.256;7.152;2023-04-24T06:13:13;14.10;;;6.80;;
19543;SDS011;9917;51.256;7.152;2023-04-24T06:15:39;11.20;;;7.10;;
19543;SDS011;9917;51.256;7.152;2023-04-24T06:18:05;10.77;;;7.30;;
19543;SDS011;9917;51.256;7.152;2023-04-24T06:20:31;10.93;;;7.07;;
19543;SDS011;9917;51.256;7.152;2023-04-24T06:22:56;9.27;;;6.67;;
19543;SDS011;9917;51.256;7.152;2023-04-24T06:25:24;9.93;;;6.90;;
19543;SDS011;9917;51.256;7.152;2023-04-24T06:27:50;9.90;;;7.50;;
19543;SDS011;9917;51.256;7.152;2023-04-24T06:30:17;13.10;;;6.93;;
19543;SDS011;9917;51.256;7.152;2023-04-24T06:32:43;14.20;;;7.00;;
19543;SDS011;9917;51.256;7.152;2023-04-24T06:35:09;9.63;;;6.87;;
19543;SDS011;9917;51.256;7.152;2023-04-24T06:37:34;9.47;;;6.67;;
19543;SDS011;9917;51.256;7.152;2023-04-24T06:40:00;11.80;;;7.03;;
19543;SDS011;9917;51.256;7.152;2023-04-24T06:42:26;12.90;;;6.63;;
19543;SDS011;9917;51.256;7.152;2023-04-24T06:44:52;9.50;;;6.47;;
19543;SDS011;9917;51.256;7.152;2023-04-24T06:47:19;11.37;;;6.57;;
19543;SDS011;9917;51.256;7.152;2023-04-24T06:49:50;11.37;;;6.27;;
19543;SDS011;9917;51.256;7.152;2023-04-24T06:52:19;10.73;;;6.67;;
19543;SDS011;9917;51.256;7.152;2023-04-24T06:54:51;8.80;;;6.10;;
19543;SDS011;9917;51.256;7.152;2023-04-24T06:57:24;6.77;;;5.03;;
19543;SDS011;9917;51.256;7.152;2023-04-24T06:59:56;6.93;;;5.33;;
19543;SDS011;9917;51.256;7.152;2023-04-24T07:02:39;8.23;;;4.70;;
19543;SDS011;9917;51.256;7.152;2023-04-24T07:05:05;21.30;;;10.00;;
19543;SDS011;9917;51.256;7.152;2023-04-24T07:07:31;7.57;;;4.50;;
19543;SDS011;9917;51.256;7.152;2023-04-24T07:09:57;8.67;;;5.30;;
19543;SDS011;9917;51.256;7.152;2023-04-24T07:12:23;8.10;;;4.87;;
19543;SDS011;9917;51.256;7.152;2023-04-24T07:14:50;9.37;;;5.07;;
19543;SDS011;9917;51.256;7.152;2023-04-24T07:17:15;7.03;;;5.03;;
19543;SDS011;9917;51.256;7.152;2023-04-24T07:19:43;7.33;;;4.53;;
19543;SDS011;9917;51.256;7.152;2023-04-24T07:22:09;7.03;;;4.87;;
19543;SDS011;9917;51.256;7.152;2023-04-24T07:24:35;9.03;;;5.13;;
19543;SDS011;9917;51.256;7.152;2023-04-24T07:27:04;7.83;;;5.17;;
19543;SDS011;9917;51.256;7.152;2023-04-24T07:29:30;5.37;;;4.53;;
19543;SDS011;9917;51.256;7.152;2023-04-24T07:31:56;6.03;;;4.60;;
19543;SDS011;9917;51.256;7.152;2023-04-24T07:34:22;6.40;;;5.17;;
19543;SDS011;9917;51.256;7.152;2023-04-24T07:36:49;6.03;;;5.40;;
19543;SDS011;9917;51.256;7.152;2023-04-24T07:39:15;7.47;;;4.60;;
19543;SDS011;9917;51.256;7.152;2023-04-24T07:41:43;5.23;;;4.07;;
19543;SDS011;9917;51.256;7.152;2023-04-24T07:44:09;6.40;;;3.80;;
19543;SDS011;9917;51.256;7.152;2023-04-24T07:46:35;6.77;;;3.43;;
19543;SDS011;9917;51.256;7.152;2023-04-24T07:49:01;6.30;;;3.60;;
19543;SDS011;9917;51.256;7.152;2023-04-24T07:51:27;4.50;;;2.67;;
19543;SDS011;9917;51.256;7.152;2023-04-24T07:53:54;3.30;;;2.60;;
19543;SDS011;9917;51.256;7.152;2023-04-24T07:56:20;4.23;;;2.33;;
19543;SDS011;9917;51.256;7.152;2023-04-24T07:58:46;2.73;;;2.13;;
19543;SDS011;9917;51.256;7.152;2023-04-24T08:01:12;4.37;;;2.00;;
19543;SDS011;9917;51.256;7.152;2023-04-24T08:03:38;3.20;;;2.03;;
19543;SDS011;9917;51.256;7.152;2023-04-24T08:06:04;2.07;;;1.30;;
19543;SDS011;9917;51.256;7.152;2023-04-24T08:08:30;1.37;;;0.97;;
19543;SDS011;9917;51.256;7.152;2023-04-24T08:10:57;1.47;;;0.97;;
19543;SDS011;9917;51.256;7.152;2023-04-24T08:13:23;0.73;;;0.63;;
19543;SDS011;9917;51.256;7.152;2023-04-24T08:15:49;0.90;;;0.80;;
19543;SDS011;9917;51.256;7.152;2023-04-24T08:18:15;1.70;;;1.17;;
19543;SDS011;9917;51.256;7.152;2023-04-24T08:20:41;2.77;;;0.97;;
19543;SDS011;9917;51.256;7.152;2023-04-24T08:23:07;1.90;;;0.70;;
19543;SDS011;9917;51.256;7.152;2023-04-24T08:25:33;1.00;;;0.63;;
19543;SDS011;9917;51.256;7.152;2023-04-24T08:28:01;1.03;;;0.87;;
19543;SDS011;9917;51.256;7.152;2023-04-24T08:30:27;1.43;;;1.00;;
19543;SDS011;9917;51.256;7.152;2023-04-24T08:32:53;1.77;;;0.90;;
19543;SDS011;9917;51.256;7.152;2023-04-24T08:35:19;0.90;;;0.70;;
19543;SDS011;9917;51.256;7.152;2023-04-24T08:37:45;0.70;;;0.70;;
19543;SDS011;9917;51.256;7.152;2023-04-24T08:40:13;5.00;;;1.13;;
19543;SDS011;9917;51.256;7.152;2023-04-24T08:42:41;1.03;;;0.93;;
19543;SDS011;9917;51.256;7.152;2023-04-24T08:45:10;4.47;;;1.10;;
19543;SDS011;9917;51.256;7.152;2023-04-24T08:47:37;6.33;;;1.37;;
19543;SDS011;9917;51.256;7.152;2023-04-24T08:50:05;1.73;;;1.30;;
19543;SDS011;9917;51.256;7.152;2023-04-24T08:52:32;2.03;;;1.37;;
19543;SDS011;9917;51.256;7.152;2023-04-24T08:54:58;2.60;;;1.00;;
19543;SDS011;9917;51.256;7.152;2023-04-24T08:57:27;3.97;;;0.97;;
19543;SDS011;9917;51.256;7.152;2023-04-24T08:59:53;1.93;;;1.10;;
19543;SDS011;9917;51.256;7.152;2023-04-24T09:02:22;2.13;;;1.13;;
19543;SDS011;9917;51.256;7.152;2023-04-24T09:04:48;1.80;;;1.23;;
19543;SDS011;9917;51.256;7.152;2023-04-24T09:07:15;3.47;;;1.20;;
19543;SDS011;9917;51.256;7.152;2023-04-24T09:09:43;1.70;;;1.10;;
19543;SDS011;9917;51.256;7.152;2023-04-24T09:12:09;1.73;;;1.27;;
19543;SDS011;9917;51.256;7.152;2023-04-24T09:14:35;1.30;;;1.00;;
19543;SDS011;9917;51.256;7.152;2023-04-24T09:17:01;3.17;;;1.20;;
19543;SDS011;9917;51.256;7.152;2023-04-24T09:19:28;4.40;;;1.80;;
19543;SDS011;9917;51.256;7.152;2023-04-24T09:21:54;3.20;;;1.77;;
19543;SDS011;9917;51.256;7.152;2023-04-24T09:24:22;4.07;;;2.10;;
19543;SDS011;9917;51.256;7.152;2023-04-24T09:26:48;2.60;;;1.60;;
19543;SDS011;9917;51.256;7.152;2023-04-24T09:29:15;4.63;;;2.20;;
19543;SDS011;9917;51.256;7.152;2023-04-24T09:31:41;2.53;;;1.90;;
19543;SDS011;9917;51.256;7.152;2023-04-24T09:34:09;3.20;;;2.30;;
19543;SDS011;9917;51.256;7.152;2023-04-24T09:39:37;4.40;;;2.70;;
19543;SDS011;9917;51.256;7.152;2023-04-24T09:42:05;3.97;;;2.47;;
19543;SDS011;9917;51.256;7.152;2023-04-24T09:44:34;6.07;;;2.63;;
19543;SDS011;9917;51.256;7.152;2023-04-24T09:47:01;3.33;;;2.50;;
19543;SDS011;9917;51.256;7.152;2023-04-24T09:49:27;4.23;;;2.73;;
19543;SDS011;9917;51.256;7.152;2023-04-24T09:52:03;5.47;;;2.93;;
19543;SDS011;9917;51.256;7.152;2023-04-24T09:54:31;4.20;;;3.17;;
19543;SDS011;9917;51.256;7.152;2023-04-24T09:56:59;6.13;;;3.90;;
19543;SDS011;9917;51.256;7.152;2023-04-24T09:59:25;5.60;;;2.60;;
19543;SDS011;9917;51.256;7.152;2023-04-24T10:01:51;4.90;;;3.53;;
19543;SDS011;9917;51.256;7.152;2023-04-24T10:04:18;6.27;;;3.63;;
19543;SDS011;9917;51.256;7.152;2023-04-24T10:06:44;6.57;;;2.87;;
19543;SDS011;9917;51.256;7.152;2023-04-24T10:09:12;6.77;;;3.50;;
19543;SDS011;9917;51.256;7.152;2023-04-24T10:11:38;7.23;;;3.70;;
19543;SDS011;9917;51.256;7.152;2023-04-24T10:14:07;6.57;;;3.60;;
19543;SDS011;9917;51.256;7.152;2023-04-24T10:16:34;5.90;;;3.90;;
19543;SDS011;9917;51.256;7.152;2023-04-24T10:19:02;7.70;;;4.47;;
19543;SDS011;9917;51.256;7.152;2023-04-24T10:21:29;6.90;;;4.13;;
19543;SDS011;9917;51.256;7.152;2023-04-24T10:23:55;7.13;;;4.20;;
19543;SDS011;9917;51.256;7.152;2023-04-24T10:26:22;6.13;;;4.27;;
19543;SDS011;9917;51.256;7.152;2023-04-24T10:28:49;7.00;;;3.70;;
19543;SDS011;9917;51.256;7.152;2023-04-24T10:31:15;5.10;;;3.83;;
19543;SDS011;9917;51.256;7.152;2023-04-24T10:33:41;6.50;;;3.67;;
19543;SDS011;9917;51.256;7.152;2023-04-24T10:36:08;6.17;;;3.83;;
19543;SDS011;9917;51.256;7.152;2023-04-24T10:38:35;7.83;;;3.60;;
19543;SDS011;9917;51.256;7.152;2023-04-24T10:41:07;5.97;;;3.30;;
19543;SDS011;9917;51.256;7.152;2023-04-24T10:43:35;11.70;;;4.47;;
19543;SDS011;9917;51.256;7.152;2023-04-24T10:46:01;7.70;;;4.23;;
19543;SDS011;9917;51.256;7.152;2023-04-24T10:48:27;11.17;;;3.50;;
19543;SDS011;9917;51.256;7.152;2023-04-24T10:50:53;6.77;;;3.40;;
19543;SDS011;9917;51.256;7.152;2023-04-24T10:53:20;8.53;;;3.33;;
19543;SDS011;9917;51.256;7.152;2023-04-24T10:55:47;7.90;;;3.40;;
19543;SDS011;9917;51.256;7.152;2023-04-24T10:58:15;11.80;;;4.00;;
19543;SDS011;9917;51.256;7.152;2023-04-24T11:00:54;10.70;;;2.70;;
19543;SDS011;9917;51.256;7.152;2023-04-24T11:03:28;7.50;;;3.60;;
19543;SDS011;9917;51.256;7.152;2023-04-24T11:05:59;8.03;;;3.10;;
19543;SDS011;9917;51.256;7.152;2023-04-24T11:08:27;8.43;;;3.00;;
19543;SDS011;9917;51.256;7.152;2023-04-24T11:11:02;4.57;;;2.97;;
19543;SDS011;9917;51.256;7.152;2023-04-24T11:16:29;8.73;;;3.30;;
19543;SDS011;9917;51.256;7.152;2023-04-24T11:19:00;8.80;;;2.90;;
19543;SDS011;9917;51.256;7.152;2023-04-24T11:21:30;6.50;;;3.20;;
19543;SDS011;9917;51.256;7.152;2023-04-24T11:23:57;6.93;;;3.10;;
19543;SDS011;9917;51.256;7.152;2023-04-24T11:26:22;6.28;;;2.80;;
19543;SDS011;9917;51.256;7.152;2023-04-24T11:28:49;7.47;;;3.03;;
19543;SDS011;9917;51.256;7.152;2023-04-24T11:34:05;7.00;;;4.03;;
19543;SDS011;9917;51.256;7.152;2023-04-24T11:36:34;14.27;;;4.53;;
19543;SDS011;9917;51.256;7.152;2023-04-24T11:39:01;8.90;;;4.15;;
19543;SDS011;9917;51.256;7.152;2023-04-24T11:41:30;9.00;;;4.03;;
19543;SDS011;9917;51.256;7.152;2023-04-24T11:43:56;11.53;;;4.33;;
19543;SDS011;9917;51.256;7.152;2023-04-24T11:46:29;12.50;;;3.70;;
19543;SDS011;9917;51.256;7.152;2023-04-24T11:48:57;10.60;;;4.15;;
19543;SDS011;9917;51.256;7.152;2023-04-24T11:51:26;13.63;;;4.20;;
19543;SDS011;9917;51.256;7.152;2023-04-24T11:53:52;10.33;;;3.87;;
19543;SDS011;9917;51.256;7.152;2023-04-24T11:56:18;8.40;;;3.97;;
19543;SDS011;9917;51.256;7.152;2023-04-24T11:58:53;10.37;;;3.93;;
19543;SDS011;9917;51.256;7.152;2023-04-24T12:01:22;10.70;;;3.93;;
19543;SDS011;9917;51.256;7.152;2023-04-24T12:03:48;8.80;;;4.05;;
19543;SDS011;9917;51.256;7.152;2023-04-24T12:06:15;8.82;;;3.92;;
19543;SDS011;9917;51.256;7.152;2023-04-24T12:08:41;9.23;;;3.88;;
19543;SDS011;9917;51.256;7.152;2023-04-24T12:11:07;11.20;;;5.13;;
19543;SDS011;9917;51.256;7.152;2023-04-24T12:13:33;12.20;;;3.28;;
19543;SDS011;9917;51.256;7.152;2023-04-24T12:16:02;8.15;;;3.72;;
19543;SDS011;9917;51.256;7.152;2023-04-24T12:18:28;8.27;;;3.00;;
19543;SDS011;9917;51.256;7.152;2023-04-24T12:20:54;9.32;;;3.72;;
19543;SDS011;9917;51.256;7.152;2023-04-24T12:23:34;10.35;;;3.63;;
19543;SDS011;9917;51.256;7.152;2023-04-24T12:26:00;8.27;;;3.17;;
19543;SDS011;9917;51.256;7.152;2023-04-24T12:28:34;7.57;;;3.23;;
19543;SDS011;9917;51.256;7.152;2023-04-24T12:31:04;13.23;;;3.10;;
19543;SDS011;9917;51.256;7.152;2023-04-24T12:33:32;14.05;;;3.28;;
19543;SDS011;9917;51.256;7.152;2023-04-24T12:35:58;7.53;;;2.70;;
19543;SDS011;9917;51.256;7.152;2023-04-24T12:38:25;11.60;;;3.25;;
19543;SDS011;9917;51.256;7.152;2023-04-24T12:41:03;13.45;;;3.50;;
19543;SDS011;9917;51.256;7.152;2023-04-24T12:43:30;9.18;;;2.75;;
19543;SDS011;9917;51.256;7.152;2023-04-24T12:45:56;12.18;;;2.88;;
19543;SDS011;9917;51.256;7.152;2023-04-24T12:48:23;6.90;;;2.53;;
19543;SDS011;9917;51.256;7.152;2023-04-24T12:50:48;9.43;;;3.37;;
19543;SDS011;9917;51.256;7.152;2023-04-24T12:53:14;12.40;;;3.17;;
19543;SDS011;9917;51.256;7.152;2023-04-24T12:55:47;5.55;;;2.30;;
19543;SDS011;9917;51.256;7.152;2023-04-24T12:58:17;4.30;;;2.00;;
19543;SDS011;9917;51.256;7.152;2023-04-24T13:00:47;8.95;;;2.58;;
19543;SDS011;9917;51.256;7.152;2023-04-24T13:03:16;11.15;;;2.25;;
19543;SDS011;9917;51.256;7.152;2023-04-24T13:05:42;8.00;;;2.00;;
19543;SDS011;9917;51.256;7.152;2023-04-24T13:08:08;6.03;;;1.90;;
19543;SDS011;9917;51.256;7.152;2023-04-24T13:10:34;5.38;;;2.05;;
19543;SDS011;9917;51.256;7.152;2023-04-24T13:13:00;8.00;;;2.30;;
19543;SDS011;9917;51.256;7.152;2023-04-24T13:15:28;6.32;;;1.58;;
19543;SDS011;9917;51.256;7.152;2023-04-24T13:17:55;3.17;;;1.23;;
19543;SDS011;9917;51.256;7.152;2023-04-24T13:20:27;5.82;;;1.15;;
19543;SDS011;9917;51.256;7.152;2023-04-24T13:22:53;4.50;;;1.50;;
19543;SDS011;9917;51.256;7.152;2023-04-24T13:25:19;3.28;;;1.40;;
19543;SDS011;9917;51.256;7.152;2023-04-24T13:27:49;6.35;;;1.65;;
19543;SDS011;9917;51.256;7.152;2023-04-24T13:30:15;3.67;;;1.48;;
19543;SDS011;9917;51.256;7.152;2023-04-24T13:32:42;7.75;;;1.80;;
19543;SDS011;9917;51.256;7.152;2023-04-24T13:35:08;6.40;;;1.38;;
19543;SDS011;9917;51.256;7.152;2023-04-24T13:37:35;5.60;;;1.58;;
19543;SDS011;9917;51.256;7.152;2023-04-24T13:40:01;4.05;;;1.33;;
19543;SDS011;9917;51.256;7.152;2023-04-24T13:42:27;4.25;;;1.83;;
19543;SDS011;9917;51.256;7.152;2023-04-24T13:44:54;3.05;;;1.48;;
19543;SDS011;9917;51.256;7.152;2023-04-24T13:47:24;5.82;;;2.65;;
19543;SDS011;9917;51.256;7.152;2023-04-24T13:49:53;5.88;;;1.25;;
19543;SDS011;9917;51.256;7.152;2023-04-24T13:52:25;2.28;;;1.17;;
19543;SDS011;9917;51.256;7.152;2023-04-24T13:54:57;5.90;;;1.35;;
19543;SDS011;9917;51.256;7.152;2023-04-24T13:57:23;2.13;;;1.40;;
19543;SDS011;9917;51.256;7.152;2023-04-24T13:59:49;2.88;;;0.90;;
19543;SDS011;9917;51.256;7.152;2023-04-24T14:02:15;3.90;;;1.10;;
19543;SDS011;9917;51.256;7.152;2023-04-24T14:04:45;6.43;;;1.60;;
19543;SDS011;9917;51.256;7.152;2023-04-24T14:07:13;4.38;;;1.17;;
19543;SDS011;9917;51.256;7.152;2023-04-24T14:09:39;2.95;;;1.30;;
19543;SDS011;9917;51.256;7.152;2023-04-24T14:12:06;3.88;;;0.90;;
19543;SDS011;9917;51.256;7.152;2023-04-24T14:14:36;2.50;;;1.30;;
19543;SDS011;9917;51.256;7.152;2023-04-24T14:17:02;7.13;;;1.90;;
19543;SDS011;9917;51.256;7.152;2023-04-24T14:19:29;3.30;;;1.48;;
19543;SDS011;9917;51.256;7.152;2023-04-24T14:21:58;4.78;;;2.28;;
19543;SDS011;9917;51.256;7.152;2023-04-24T14:24:34;4.18;;;1.70;;
19543;SDS011;9917;51.256;7.152;2023-04-24T14:27:05;2.47;;;1.35;;
19543;SDS011;9917;51.256;7.152;2023-04-24T14:29:33;3.95;;;1.55;;
19543;SDS011;9917;51.256;7.152;2023-04-24T14:31:59;6.95;;;3.17;;
19543;SDS011;9917;51.256;7.152;2023-04-24T14:34:28;10.18;;;3.15;;
19543;SDS011;9917;51.256;7.152;2023-04-24T14:37:00;9.13;;;3.30;;
19543;SDS011;9917;51.256;7.152;2023-04-24T14:39:27;6.45;;;2.15;;
19543;SDS011;9917;51.256;7.152;2023-04-24T14:41:53;3.17;;;0.95;;
19543;SDS011;9917;51.256;7.152;2023-04-24T14:44:24;1.80;;;0.98;;
19543;SDS011;9917;51.256;7.152;2023-04-24T14:46:56;3.28;;;1.30;;
19543;SDS011;9917;51.256;7.152;2023-04-24T14:49:22;3.35;;;1.10;;
19543;SDS011;9917;51.256;7.152;2023-04-24T14:51:48;2.88;;;1.23;;
19543;SDS011;9917;51.256;7.152;2023-04-24T14:54:18;5.03;;;1.30;;
19543;SDS011;9917;51.256;7.152;2023-04-24T14:56:45;3.58;;;0.98;;
19543;SDS011;9917;51.256;7.152;2023-04-24T14:59:11;1.95;;;1.02;;
19543;SDS011;9917;51.256;7.152;2023-04-24T15:01:37;2.05;;;0.95;;
19543;SDS011;9917;51.256;7.152;2023-04-24T15:04:03;2.40;;;0.95;;